Sausalito, California
Current Conditions -  °F | °C
As of 10:53 AM on Saturday 25 Oct 2014 (Local Time) from KOAK Reporting Station
Broken Clouds Broken Clouds  
Wind Chill: 64°   Ceiling: 4500
Heat Index: 64°   Visibility: 10mi
Dew Point: 59°   Wind: 14mph
Humidity: 84%   Direction: 150°SSE
Pressure: 30.06"   Gusts: NA
Location:  37.86°N, 122.48°W
Report Text: KOAK 251753Z 15012KT 10SM FEW026 BKN045 BKN050 18/15 A3006 RMK AO2 SLP177 60023 T01780150 10183 20156 51027
Loading
Personal Weather Stations






























Interactive Weather Map
Tropical Storm Tracking
New forecast layout! Learn more

10-Day Weather Forecast

Advertisements
Track Severe Weather on mobile